Billings, MT

6:02 PM MDT on July 03, 2015 (GMT -0600)
South of Castle Rock Park | | Change Station
CLOSE
Current Station
Personal Weather Station
Location: Billings, MT
Elevation: 3297 ft
Nearby Weather Stations

Elev 3297 ft 45.82 °N, 108.50 °W | Updated 19 seconds ago

Partly Cloudy
Partly Cloudy
99.7 °F
Feels Like 98 °F
N
0.2
Wind Variable Wind from NW
Gusts 1.8 mph

Today
High -- | Low -- °F
--% Chance of Precip.
Yesterday
High -- | Low -- °F
Precip. -- in
5:29 AM 9:06 PM
Waning Gibbous, 95% visible
Pressure 29.77 in
Visibility 10.0 miles
Clouds Few 8000 ft
Few 15000 ft
Mostly Cloudy 20000 ft
Heat Index 98 °F
Dew Point 55 °F
Humidity 23%
Rainfall 0.00 in
Snow Depth Not available.
UV 2 out of 12
Pollen 5.50 out of 12
Air Quality Not available.
Flu Activity Not available.
METAR KBIL 032353Z 12005KT 10SM FEW080 FEW150 BKN200 32/07 A2989 RMK AO2 SLP081 T03220072 10339 20278 56017

More Conditions Fewer Conditions

Pressure 29.77 in
Visibility 10.0 miles
Clouds Few 8000 ft
Few 15000 ft
Mostly Cloudy 20000 ft
Heat Index 98 °F
Dew Point 55 °F
Humidity 23%
Rainfall 0.00 in
Snow Depth Not available.
UV 2 out of 12
Pollen 5.50 out of 12
Air Quality Not available.
Flu Activity Not available.
METAR KBIL 032353Z 12005KT 10SM FEW080 FEW150 BKN200 32/07 A2989 RMK AO2 SLP081 T03220072 10339 20278 56017

More Conditions Fewer Conditions

10-Day Weather Forecast

×

Almanac

Astronomy

Jul. 03, 2015 Rise Set
Actual Time
Civil Twilight
Nautical Twilight
Astronomical Twilight
Moon
Length of Visible Light
Length of Day
Tomorrow will be .
, % of the Moon is Illuminated

Today's Extremes

State Highs State Lows

Community

WunderPhotos

Upload Photos

1,834,831 photos uploaded!

WunderBlogs® & News

Nearby

Air Quality

  Air Quality AQ Index Pollutant
Not available.

Snow Depth

Station Depth Elevation

Earthquake Activity

City Distance Mag. Time & Date
Minimum magnitude displayed is 2.5.

Coastal Water Temperatures

Place Temperature

Stations

Nearby Weather Stations

Station Location Temp. Windchill Dew Point Humidity Wind Precip. Elev Updated Type